sensor_id;sensor_type;location;lat;lon;timestamp;pressure;altitude;pressure_sealevel;temperature;humidity
706;BME280;21234;48.690;9.016;2022-08-06T00:01:55;96675.78;;;18.55;58.91
706;BME280;21234;48.690;9.016;2022-08-06T00:04:22;96690.38;;;18.60;57.74
706;BME280;21234;48.690;9.016;2022-08-06T00:06:49;96678.84;;;18.53;58.92
706;BME280;21234;48.690;9.016;2022-08-06T00:09:16;96680.03;;;18.47;59.12
706;BME280;21234;48.690;9.016;2022-08-06T00:11:43;96670.69;;;18.43;59.00
706;BME280;21234;48.690;9.016;2022-08-06T00:14:09;96672.06;;;18.45;58.33
706;BME280;21234;48.690;9.016;2022-08-06T00:16:38;96679.75;;;18.49;58.29
706;BME280;21234;48.690;9.016;2022-08-06T00:19:05;96672.63;;;18.42;58.08
706;BME280;21234;48.690;9.016;2022-08-06T00:21:31;96670.16;;;18.41;58.85
706;BME280;21234;48.690;9.016;2022-08-06T00:23:59;96675.44;;;18.37;58.10
706;BME280;21234;48.690;9.016;2022-08-06T00:26:26;96684.75;;;18.41;58.52
706;BME280;21234;48.690;9.016;2022-08-06T00:28:54;96678.72;;;18.39;59.09
706;BME280;21234;48.690;9.016;2022-08-06T00:31:20;96685.28;;;18.43;58.54
706;BME280;21234;48.690;9.016;2022-08-06T00:33:49;96686.09;;;18.44;58.53
706;BME280;21234;48.690;9.016;2022-08-06T00:36:15;96685.00;;;18.45;58.48
706;BME280;21234;48.690;9.016;2022-08-06T00:38:42;96685.88;;;18.40;58.51
706;BME280;21234;48.690;9.016;2022-08-06T00:41:09;96686.94;;;18.44;59.80
706;BME280;21234;48.690;9.016;2022-08-06T00:43:36;96688.03;;;18.43;59.38
706;BME280;21234;48.690;9.016;2022-08-06T00:46:03;96694.06;;;18.45;59.51
706;BME280;21234;48.690;9.016;2022-08-06T00:48:30;96688.31;;;18.42;59.28
706;BME280;21234;48.690;9.016;2022-08-06T00:50:58;96692.72;;;18.43;58.94
706;BME280;21234;48.690;9.016;2022-08-06T00:53:24;96697.94;;;18.44;58.51
706;BME280;21234;48.690;9.016;2022-08-06T00:55:51;96692.84;;;18.28;58.93
706;BME280;21234;48.690;9.016;2022-08-06T00:58:18;96703.63;;;18.24;59.27
706;BME280;21234;48.690;9.016;2022-08-06T01:00:45;96703.91;;;18.23;59.40
706;BME280;21234;48.690;9.016;2022-08-06T01:03:11;96702.53;;;18.20;59.69
706;BME280;21234;48.690;9.016;2022-08-06T01:05:42;96713.34;;;18.17;59.09
706;BME280;21234;48.690;9.016;2022-08-06T01:08:11;96710.09;;;18.09;59.83
706;BME280;21234;48.690;9.016;2022-08-06T01:10:38;96720.47;;;18.18;59.44
706;BME280;21234;48.690;9.016;2022-08-06T01:13:05;96718.53;;;18.18;59.60
706;BME280;21234;48.690;9.016;2022-08-06T01:15:32;96717.44;;;18.19;59.98
706;BME280;21234;48.690;9.016;2022-08-06T01:18:04;96724.56;;;18.20;60.17
706;BME280;21234;48.690;9.016;2022-08-06T01:20:43;96717.44;;;18.19;59.91
706;BME280;21234;48.690;9.016;2022-08-06T01:23:28;96712.50;;;18.16;60.14
706;BME280;21234;48.690;9.016;2022-08-06T01:26:27;96718.88;;;18.11;60.06
706;BME280;21234;48.690;9.016;2022-08-06T01:29:00;96715.84;;;18.13;59.39
706;BME280;21234;48.690;9.016;2022-08-06T01:31:30;96715.88;;;18.08;59.37
706;BME280;21234;48.690;9.016;2022-08-06T01:34:00;96711.72;;;18.10;60.51
706;BME280;21234;48.690;9.016;2022-08-06T01:36:39;96713.97;;;18.03;60.28
706;BME280;21234;48.690;9.016;2022-08-06T01:39:08;96709.59;;;18.02;59.92
706;BME280;21234;48.690;9.016;2022-08-06T01:41:41;96708.78;;;17.97;59.59
706;BME280;21234;48.690;9.016;2022-08-06T01:44:11;96711.50;;;18.02;60.08
706;BME280;21234;48.690;9.016;2022-08-06T01:46:42;96718.16;;;17.96;59.89
706;BME280;21234;48.690;9.016;2022-08-06T01:49:11;96716.22;;;17.96;60.05
706;BME280;21234;48.690;9.016;2022-08-06T01:51:41;96712.63;;;18.01;59.32
706;BME280;21234;48.690;9.016;2022-08-06T01:54:10;96715.41;;;17.96;60.29
706;BME280;21234;48.690;9.016;2022-08-06T01:56:41;96713.50;;;17.91;59.59
706;BME280;21234;48.690;9.016;2022-08-06T01:59:12;96711.03;;;17.90;60.08
706;BME280;21234;48.690;9.016;2022-08-06T02:01:41;96709.69;;;17.87;60.23
706;BME280;21234;48.690;9.016;2022-08-06T02:04:10;96718.25;;;17.86;59.50
706;BME280;21234;48.690;9.016;2022-08-06T02:06:42;96716.88;;;17.83;59.79
706;BME280;21234;48.690;9.016;2022-08-06T02:09:13;96705.88;;;17.83;59.21
706;BME280;21234;48.690;9.016;2022-08-06T02:11:41;96705.63;;;17.79;59.46
706;BME280;21234;48.690;9.016;2022-08-06T02:14:12;96713.13;;;17.69;59.74
706;BME280;21234;48.690;9.016;2022-08-06T02:16:41;96710.66;;;17.67;59.60
706;BME280;21234;48.690;9.016;2022-08-06T02:19:14;96709.81;;;17.67;60.41
706;BME280;21234;48.690;9.016;2022-08-06T02:21:44;96717.78;;;17.63;60.31
706;BME280;21234;48.690;9.016;2022-08-06T02:24:12;96724.69;;;17.61;60.62
706;BME280;21234;48.690;9.016;2022-08-06T02:26:40;96721.09;;;17.65;60.37
706;BME280;21234;48.690;9.016;2022-08-06T02:29:10;96713.69;;;17.61;60.45
706;BME280;21234;48.690;9.016;2022-08-06T02:31:39;96729.69;;;17.54;61.11
706;BME280;21234;48.690;9.016;2022-08-06T02:34:06;96728.31;;;17.51;61.00
706;BME280;21234;48.690;9.016;2022-08-06T02:36:38;96734.88;;;17.55;60.94
706;BME280;21234;48.690;9.016;2022-08-06T02:39:09;96729.09;;;17.57;61.79
706;BME280;21234;48.690;9.016;2022-08-06T02:41:40;96735.47;;;17.52;61.30
706;BME280;21234;48.690;9.016;2022-08-06T02:44:11;96737.66;;;17.50;61.86
706;BME280;21234;48.690;9.016;2022-08-06T02:46:45;96736.84;;;17.50;61.74
706;BME280;21234;48.690;9.016;2022-08-06T02:49:17;96735.47;;;17.52;61.40
706;BME280;21234;48.690;9.016;2022-08-06T02:51:50;96731.91;;;17.52;61.04
706;BME280;21234;48.690;9.016;2022-08-06T02:54:21;96734.09;;;17.50;61.23
706;BME280;21234;48.690;9.016;2022-08-06T02:56:50;96729.16;;;17.52;61.81
706;BME280;21234;48.690;9.016;2022-08-06T02:59:24;96728.34;;;17.46;61.71
706;BME280;21234;48.690;9.016;2022-08-06T03:01:58;96727.25;;;17.42;62.19
706;BME280;21234;48.690;9.016;2022-08-06T03:04:29;96721.50;;;17.38;62.18
706;BME280;21234;48.690;9.016;2022-08-06T03:06:57;96716.56;;;17.35;62.12
706;BME280;21234;48.690;9.016;2022-08-06T03:09:26;96717.97;;;17.28;62.59
706;BME280;21234;48.690;9.016;2022-08-06T03:11:54;96721.34;;;17.15;62.53
706;BME280;21234;48.690;9.016;2022-08-06T03:14:23;96722.66;;;17.22;63.12
706;BME280;21234;48.690;9.016;2022-08-06T03:16:51;96737.00;;;17.19;63.30
706;BME280;21234;48.690;9.016;2022-08-06T03:19:20;96740.03;;;17.18;62.90
706;BME280;21234;48.690;9.016;2022-08-06T03:21:49;96739.19;;;17.17;63.62
706;BME280;21234;48.690;9.016;2022-08-06T03:24:18;96740.03;;;17.12;63.78
706;BME280;21234;48.690;9.016;2022-08-06T03:26:46;96745.78;;;17.16;62.87
706;BME280;21234;48.690;9.016;2022-08-06T03:29:14;96749.38;;;17.17;63.12
706;BME280;21234;48.690;9.016;2022-08-06T03:31:41;96751.31;;;17.11;63.15
706;BME280;21234;48.690;9.016;2022-08-06T03:34:08;96758.72;;;17.16;63.79
706;BME280;21234;48.690;9.016;2022-08-06T03:36:37;96755.16;;;17.05;63.99
706;BME280;21234;48.690;9.016;2022-08-06T03:39:06;96748.56;;;17.06;63.97
706;BME280;21234;48.690;9.016;2022-08-06T03:41:35;96756.28;;;16.99;64.82
706;BME280;21234;48.690;9.016;2022-08-06T03:44:03;96754.09;;;16.91;64.35
706;BME280;21234;48.690;9.016;2022-08-06T03:46:34;96759.63;;;16.86;64.67
706;BME280;21234;48.690;9.016;2022-08-06T03:49:03;96761.22;;;16.92;64.85
706;BME280;21234;48.690;9.016;2022-08-06T03:51:33;96758.81;;;16.85;64.79
706;BME280;21234;48.690;9.016;2022-08-06T03:54:03;96759.06;;;16.84;64.35
706;BME280;21234;48.690;9.016;2022-08-06T03:56:32;96757.16;;;16.79;65.53
706;BME280;21234;48.690;9.016;2022-08-06T03:59:03;96767.03;;;16.80;65.32
706;BME280;21234;48.690;9.016;2022-08-06T04:01:32;96766.22;;;16.74;65.59
706;BME280;21234;48.690;9.016;2022-08-06T04:04:02;96764.56;;;16.73;65.80
706;BME280;21234;48.690;9.016;2022-08-06T04:06:30;96767.59;;;16.82;65.29
706;BME280;21234;48.690;9.016;2022-08-06T04:08:57;96771.44;;;16.76;65.80
706;BME280;21234;48.690;9.016;2022-08-06T04:11:27;96768.41;;;16.72;66.20
706;BME280;21234;48.690;9.016;2022-08-06T04:13:54;96767.59;;;16.77;66.27
706;BME280;21234;48.690;9.016;2022-08-06T04:16:22;96775.00;;;16.71;66.32
706;BME280;21234;48.690;9.016;2022-08-06T04:18:50;96773.91;;;16.67;66.22
706;BME280;21234;48.690;9.016;2022-08-06T04:21:22;96777.22;;;16.69;66.90
706;BME280;21234;48.690;9.016;2022-08-06T04:23:50;96781.06;;;16.73;66.32
706;BME280;21234;48.690;9.016;2022-08-06T04:26:21;96774.47;;;16.69;66.83
706;BME280;21234;48.690;9.016;2022-08-06T04:28:52;96773.91;;;16.72;66.78
706;BME280;21234;48.690;9.016;2022-08-06T04:31:22;96771.16;;;16.67;66.88
706;BME280;21234;48.690;9.016;2022-08-06T04:33:51;96779.94;;;16.69;67.42
706;BME280;21234;48.690;9.016;2022-08-06T04:36:18;96776.09;;;16.75;67.26
706;BME280;21234;48.690;9.016;2022-08-06T04:38:46;96783.25;;;16.76;67.03
706;BME280;21234;48.690;9.016;2022-08-06T04:41:14;96783.53;;;16.70;66.91
706;BME280;21234;48.690;9.016;2022-08-06T04:43:41;96783.75;;;16.63;67.18
706;BME280;21234;48.690;9.016;2022-08-06T04:46:09;96792.56;;;16.60;67.09
706;BME280;21234;48.690;9.016;2022-08-06T04:48:37;96786.50;;;16.63;67.55
706;BME280;21234;48.690;9.016;2022-08-06T04:51:05;96802.16;;;16.58;67.46
706;BME280;21234;48.690;9.016;2022-08-06T04:53:36;96808.22;;;16.65;68.40
706;BME280;21234;48.690;9.016;2022-08-06T04:56:04;96809.28;;;16.59;67.24
706;BME280;21234;48.690;9.016;2022-08-06T04:58:31;96809.00;;;16.60;67.51
706;BME280;21234;48.690;9.016;2022-08-06T05:00:57;96811.53;;;16.72;68.46
706;BME280;21234;48.690;9.016;2022-08-06T05:03:26;96815.38;;;16.71;68.10
706;BME280;21234;48.690;9.016;2022-08-06T05:08:39;96810.69;;;16.76;67.75
706;BME280;21234;48.690;9.016;2022-08-06T05:11:12;96818.13;;;16.76;68.35
706;BME280;21234;48.690;9.016;2022-08-06T05:13:43;96817.56;;;16.79;69.25
706;BME280;21234;48.690;9.016;2022-08-06T05:16:12;96817.56;;;16.84;68.02
706;BME280;21234;48.690;9.016;2022-08-06T05:18:45;96819.75;;;16.87;67.64
706;BME280;21234;48.690;9.016;2022-08-06T05:21:15;96823.06;;;16.84;67.74
706;BME280;21234;48.690;9.016;2022-08-06T05:23:47;96825.53;;;16.81;68.14
706;BME280;21234;48.690;9.016;2022-08-06T05:26:15;96822.75;;;16.91;68.11
706;BME280;21234;48.690;9.016;2022-08-06T05:28:43;96822.78;;;16.86;68.37
706;BME280;21234;48.690;9.016;2022-08-06T05:31:13;96824.41;;;16.87;67.88
706;BME280;21234;48.690;9.016;2022-08-06T05:33:42;96832.38;;;16.83;67.96
706;BME280;21234;48.690;9.016;2022-08-06T05:36:10;96838.97;;;16.82;67.94
706;BME280;21234;48.690;9.016;2022-08-06T05:38:40;96840.06;;;16.76;68.13
706;BME280;21234;48.690;9.016;2022-08-06T05:41:08;96838.97;;;16.77;68.34
706;BME280;21234;48.690;9.016;2022-08-06T05:43:36;96834.03;;;16.74;68.37
706;BME280;21234;48.690;9.016;2022-08-06T05:46:07;96840.63;;;16.73;68.20
706;BME280;21234;48.690;9.016;2022-08-06T05:48:46;96836.22;;;16.72;68.62
706;BME280;21234;48.690;9.016;2022-08-06T05:51:20;96833.47;;;16.77;68.63
706;BME280;21234;48.690;9.016;2022-08-06T05:53:55;96844.19;;;16.73;68.67
706;BME280;21234;48.690;9.016;2022-08-06T05:56:27;96845.28;;;16.77;68.71
706;BME280;21234;48.690;9.016;2022-08-06T05:58:58;96855.97;;;16.94;68.23
706;BME280;21234;48.690;9.016;2022-08-06T06:01:26;96849.38;;;17.10;68.21
706;BME280;21234;48.690;9.016;2022-08-06T06:03:54;96855.34;;;17.28;66.82
706;BME280;21234;48.690;9.016;2022-08-06T06:06:24;96858.09;;;17.33;66.89
706;BME280;21234;48.690;9.016;2022-08-06T06:08:52;96863.56;;;17.43;66.39
706;BME280;21234;48.690;9.016;2022-08-06T06:11:19;96870.16;;;17.52;65.48
706;BME280;21234;48.690;9.016;2022-08-06T06:13:46;96860.00;;;17.48;65.55
706;BME280;21234;48.690;9.016;2022-08-06T06:16:22;96861.84;;;17.57;65.63
706;BME280;21234;48.690;9.016;2022-08-06T06:18:58;96866.50;;;17.82;64.16
706;BME280;21234;48.690;9.016;2022-08-06T06:21:36;96866.41;;;17.92;64.27
706;BME280;21234;48.690;9.016;2022-08-06T06:24:14;96875.19;;;17.99;63.78
706;BME280;21234;48.690;9.016;2022-08-06T06:26:46;96869.81;;;18.28;63.52
706;BME280;21234;48.690;9.016;2022-08-06T06:29:27;96875.75;;;18.45;62.57
706;BME280;21234;48.690;9.016;2022-08-06T06:31:59;96873.03;;;18.40;62.10
706;BME280;21234;48.690;9.016;2022-08-06T06:34:37;96883.47;;;18.43;61.57
706;BME280;21234;48.690;9.016;2022-08-06T06:37:17;96885.69;;;18.41;61.79
706;BME280;21234;48.690;9.016;2022-08-06T06:39:48;96883.16;;;18.50;61.60
706;BME280;21234;48.690;9.016;2022-08-06T06:42:24;96881.56;;;18.83;60.97
706;BME280;21234;48.690;9.016;2022-08-06T06:45:02;96892.19;;;18.95;60.05
706;BME280;21234;48.690;9.016;2022-08-06T06:47:32;96882.66;;;19.16;59.52
706;BME280;21234;48.690;9.016;2022-08-06T06:50:05;96884.81;;;19.48;59.32
706;BME280;21234;48.690;9.016;2022-08-06T06:52:43;96885.78;;;19.62;57.73
706;BME280;21234;48.690;9.016;2022-08-06T06:55:13;96886.22;;;19.17;57.65
706;BME280;21234;48.690;9.016;2022-08-06T06:57:46;96884.31;;;18.83;60.34
706;BME280;21234;48.690;9.016;2022-08-06T07:00:15;96885.91;;;18.50;60.16
706;BME280;21234;48.690;9.016;2022-08-06T07:02:45;96888.50;;;18.31;61.51
706;BME280;21234;48.690;9.016;2022-08-06T07:05:14;96893.78;;;18.23;62.23
706;BME280;21234;48.690;9.016;2022-08-06T07:07:45;96888.09;;;18.09;62.43
706;BME280;21234;48.690;9.016;2022-08-06T07:10:13;96891.91;;;18.13;62.95
706;BME280;21234;48.690;9.016;2022-08-06T07:12:42;96889.09;;;18.23;63.67
706;BME280;21234;48.690;9.016;2022-08-06T07:15:12;96892.59;;;18.39;61.76
706;BME280;21234;48.690;9.016;2022-08-06T07:17:42;96895.94;;;18.31;62.41
706;BME280;21234;48.690;9.016;2022-08-06T07:20:11;96890.16;;;18.32;62.89
706;BME280;21234;48.690;9.016;2022-08-06T07:22:41;96894.81;;;18.37;62.08
706;BME280;21234;48.690;9.016;2022-08-06T07:25:12;96898.13;;;18.78;61.08
706;BME280;21234;48.690;9.016;2022-08-06T07:27:42;96885.44;;;19.40;58.34
706;BME280;21234;48.690;9.016;2022-08-06T07:30:11;96901.78;;;19.84;57.30
706;BME280;21234;48.690;9.016;2022-08-06T07:32:39;96904.91;;;20.20;57.29
706;BME280;21234;48.690;9.016;2022-08-06T07:35:08;96906.56;;;20.64;54.74
706;BME280;21234;48.690;9.016;2022-08-06T07:37:37;96910.44;;;20.44;55.01
706;BME280;21234;48.690;9.016;2022-08-06T07:40:07;96909.88;;;20.79;54.71
706;BME280;21234;48.690;9.016;2022-08-06T07:42:37;96909.88;;;20.98;53.99
706;BME280;21234;48.690;9.016;2022-08-06T07:45:08;96899.75;;;21.26;53.32
706;BME280;21234;48.690;9.016;2022-08-06T07:47:42;96904.34;;;20.98;53.90
706;BME280;21234;48.690;9.016;2022-08-06T07:50:12;96910.19;;;20.59;53.82
706;BME280;21234;48.690;9.016;2022-08-06T07:52:41;96900.47;;;19.82;56.16
706;BME280;21234;48.690;9.016;2022-08-06T07:55:10;96898.44;;;19.63;57.09
706;BME280;21234;48.690;9.016;2022-08-06T07:57:39;96893.97;;;19.43;58.14
706;BME280;21234;48.690;9.016;2022-08-06T08:00:09;96892.28;;;19.95;56.25
706;BME280;21234;48.690;9.016;2022-08-06T08:02:36;96895.09;;;20.14;56.65
706;BME280;21234;48.690;9.016;2022-08-06T08:05:04;96898.50;;;20.25;55.36
706;BME280;21234;48.690;9.016;2022-08-06T08:07:50;96896.88;;;20.24;55.35
706;BME280;21234;48.690;9.016;2022-08-06T08:10:17;96902.91;;;20.07;54.96
706;BME280;21234;48.690;9.016;2022-08-06T08:12:45;96897.22;;;20.60;55.22
706;BME280;21234;48.690;9.016;2022-08-06T08:15:12;96898.75;;;21.03;52.98
706;BME280;21234;48.690;9.016;2022-08-06T08:17:40;96901.66;;;20.37;53.22
706;BME280;21234;48.690;9.016;2022-08-06T08:20:08;96905.50;;;20.17;53.38
706;BME280;21234;48.690;9.016;2022-08-06T08:22:36;96910.78;;;19.71;55.41
706;BME280;21234;48.690;9.016;2022-08-06T08:25:11;96907.69;;;19.49;54.76
706;BME280;21234;48.690;9.016;2022-08-06T08:27:37;96902.72;;;19.51;56.64
706;BME280;21234;48.690;9.016;2022-08-06T08:30:07;96896.84;;;20.05;56.64
706;BME280;21234;48.690;9.016;2022-08-06T08:32:37;96903.94;;;21.24;52.11
706;BME280;21234;48.690;9.016;2022-08-06T08:35:06;96901.38;;;21.87;49.10
706;BME280;21234;48.690;9.016;2022-08-06T08:37:37;96897.84;;;22.50;49.22
706;BME280;21234;48.690;9.016;2022-08-06T08:40:11;96893.16;;;22.37;46.56
706;BME280;21234;48.690;9.016;2022-08-06T08:42:43;96902.34;;;21.36;48.08
706;BME280;21234;48.690;9.016;2022-08-06T08:45:15;96907.44;;;20.59;50.65
706;BME280;21234;48.690;9.016;2022-08-06T08:47:44;96910.66;;;20.24;51.16
706;BME280;21234;48.690;9.016;2022-08-06T08:50:12;96905.81;;;20.16;53.49
706;BME280;21234;48.690;9.016;2022-08-06T08:52:44;96907.59;;;20.06;54.11
706;BME280;21234;48.690;9.016;2022-08-06T08:55:14;96911.78;;;20.04;53.66
706;BME280;21234;48.690;9.016;2022-08-06T08:57:42;96909.53;;;20.06;53.29
706;BME280;21234;48.690;9.016;2022-08-06T09:00:11;96910.16;;;19.79;53.34
706;BME280;21234;48.690;9.016;2022-08-06T09:02:38;96907.53;;;19.64;54.74
706;BME280;21234;48.690;9.016;2022-08-06T09:05:07;96910.25;;;19.69;54.43
706;BME280;21234;48.690;9.016;2022-08-06T09:07:34;96914.88;;;19.73;54.87
706;BME280;21234;48.690;9.016;2022-08-06T09:10:02;96914.06;;;19.73;55.05
706;BME280;21234;48.690;9.016;2022-08-06T09:12:29;96914.31;;;19.48;56.61
706;BME280;21234;48.690;9.016;2022-08-06T09:14:56;96914.41;;;19.37;57.07
706;BME280;21234;48.690;9.016;2022-08-06T09:17:24;96917.13;;;19.42;56.85
706;BME280;21234;48.690;9.016;2022-08-06T09:19:52;96921.84;;;19.37;56.93
706;BME280;21234;48.690;9.016;2022-08-06T09:22:19;96923.84;;;19.31;55.64
706;BME280;21234;48.690;9.016;2022-08-06T09:24:46;96926.63;;;19.26;54.64
706;BME280;21234;48.690;9.016;2022-08-06T09:27:15;96928.53;;;19.31;55.35
706;BME280;21234;48.690;9.016;2022-08-06T09:29:49;96932.41;;;19.59;55.99
706;BME280;21234;48.690;9.016;2022-08-06T09:32:42;96933.31;;;19.78;55.71
706;BME280;21234;48.690;9.016;2022-08-06T09:35:17;96935.66;;;19.90;55.18
706;BME280;21234;48.690;9.016;2022-08-06T09:37:44;96939.00;;;19.87;54.89
706;BME280;21234;48.690;9.016;2022-08-06T09:40:12;96930.81;;;20.67;53.20
706;BME280;21234;48.690;9.016;2022-08-06T09:42:41;96936.63;;;21.03;52.33
706;BME280;21234;48.690;9.016;2022-08-06T09:45:11;96936.09;;;21.01;51.32
706;BME280;21234;48.690;9.016;2022-08-06T09:47:38;96942.75;;;21.00;51.84
706;BME280;21234;48.690;9.016;2022-08-06T09:50:08;96933.81;;;20.70;51.53
706;BME280;21234;48.690;9.016;2022-08-06T09:52:35;96937.84;;;20.35;53.01
706;BME280;21234;48.690;9.016;2022-08-06T09:55:03;96936.97;;;20.16;52.03
706;BME280;21234;48.690;9.016;2022-08-06T09:57:42;96932.53;;;20.20;53.99
706;BME280;21234;48.690;9.016;2022-08-06T10:00:10;96945.56;;;20.14;53.52
706;BME280;21234;48.690;9.016;2022-08-06T10:02:37;96939.59;;;20.07;54.50
706;BME280;21234;48.690;9.016;2022-08-06T10:05:10;96939.25;;;20.14;54.16
706;BME280;21234;48.690;9.016;2022-08-06T10:07:37;96939.25;;;20.38;53.27
706;BME280;21234;48.690;9.016;2022-08-06T10:10:06;96939.91;;;20.49;52.76
706;BME280;21234;48.690;9.016;2022-08-06T10:12:33;96935.66;;;20.56;52.32
706;BME280;21234;48.690;9.016;2022-08-06T10:15:00;96937.97;;;20.49;52.38
706;BME280;21234;48.690;9.016;2022-08-06T10:17:27;96935.91;;;20.36;52.01
706;BME280;21234;48.690;9.016;2022-08-06T10:20:06;96936.19;;;20.39;51.12
706;BME280;21234;48.690;9.016;2022-08-06T10:22:34;96939.69;;;20.45;51.22
706;BME280;21234;48.690;9.016;2022-08-06T10:25:03;96940.38;;;20.32;52.00
706;BME280;21234;48.690;9.016;2022-08-06T10:27:33;96940.16;;;20.28;52.35
706;BME280;21234;48.690;9.016;2022-08-06T10:30:04;96943.69;;;20.34;53.06
706;BME280;21234;48.690;9.016;2022-08-06T10:32:35;96942.22;;;20.41;51.85
706;BME280;21234;48.690;9.016;2022-08-06T10:35:05;96941.00;;;20.48;52.01
706;BME280;21234;48.690;9.016;2022-08-06T10:37:38;96938.41;;;20.56;51.45
706;BME280;21234;48.690;9.016;2022-08-06T10:40:07;96931.63;;;20.49;50.51
706;BME280;21234;48.690;9.016;2022-08-06T10:42:36;96944.00;;;20.51;51.96
706;BME280;21234;48.690;9.016;2022-08-06T10:45:03;96939.69;;;20.83;50.46
706;BME280;21234;48.690;9.016;2022-08-06T10:47:32;96933.13;;;21.62;50.46
706;BME280;21234;48.690;9.016;2022-08-06T10:49:59;96927.94;;;22.29;46.90
706;BME280;21234;48.690;9.016;2022-08-06T10:52:27;96925.19;;;22.02;46.30
706;BME280;21234;48.690;9.016;2022-08-06T10:54:56;96933.25;;;21.98;46.50
706;BME280;21234;48.690;9.016;2022-08-06T10:57:26;96924.63;;;21.86;45.88
706;BME280;21234;48.690;9.016;2022-08-06T10:59:53;96929.53;;;21.62;47.39
706;BME280;21234;48.690;9.016;2022-08-06T11:02:34;96932.41;;;21.57;47.76
706;BME280;21234;48.690;9.016;2022-08-06T11:05:07;96930.31;;;21.49;47.17
706;BME280;21234;48.690;9.016;2022-08-06T11:08:05;96920.53;;;21.24;48.52
706;BME280;21234;48.690;9.016;2022-08-06T11:10:52;96922.41;;;21.28;49.66
706;BME280;21234;48.690;9.016;2022-08-06T11:13:28;96928.88;;;21.37;48.05
706;BME280;21234;48.690;9.016;2022-08-06T11:15:57;96920.75;;;21.87;46.86
706;BME280;21234;48.690;9.016;2022-08-06T11:18:25;96916.31;;;22.55;45.71
706;BME280;21234;48.690;9.016;2022-08-06T11:20:52;96913.94;;;22.62;44.40
706;BME280;21234;48.690;9.016;2022-08-06T11:23:25;96910.31;;;22.39;43.14
706;BME280;21234;48.690;9.016;2022-08-06T11:25:55;96902.97;;;22.57;44.12
706;BME280;21234;48.690;9.016;2022-08-06T11:28:58;96896.75;;;22.37;44.82
706;BME280;21234;48.690;9.016;2022-08-06T11:31:31;96901.91;;;22.30;45.93
706;BME280;21234;48.690;9.016;2022-08-06T11:34:00;96887.94;;;22.35;44.12
706;BME280;21234;48.690;9.016;2022-08-06T11:36:28;96893.34;;;22.90;45.26
706;BME280;21234;48.690;9.016;2022-08-06T11:39:08;96888.53;;;23.27;43.21
706;BME280;21234;48.690;9.016;2022-08-06T11:41:45;96889.94;;;22.93;44.08
706;BME280;21234;48.690;9.016;2022-08-06T11:44:13;96889.38;;;22.69;44.54
706;BME280;21234;48.690;9.016;2022-08-06T11:46:43;96880.47;;;23.17;44.32
706;BME280;21234;48.690;9.016;2022-08-06T11:49:16;96882.53;;;23.56;43.51
706;BME280;21234;48.690;9.016;2022-08-06T11:51:45;96888.78;;;23.17;43.63
706;BME280;21234;48.690;9.016;2022-08-06T11:54:14;96889.25;;;22.88;43.98
706;BME280;21234;48.690;9.016;2022-08-06T12:00:06;96880.41;;;23.08;43.43
706;BME280;21234;48.690;9.016;2022-08-06T12:02:56;96880.88;;;23.01;42.95
706;BME280;21234;48.690;9.016;2022-08-06T12:08:33;96871.47;;;23.42;41.47
706;BME280;21234;48.690;9.016;2022-08-06T12:11:22;96875.41;;;23.72;42.05
706;BME280;21234;48.690;9.016;2022-08-06T12:13:51;96863.16;;;23.73;41.69
706;BME280;21234;48.690;9.016;2022-08-06T12:16:34;96869.16;;;23.58;42.72
706;BME280;21234;48.690;9.016;2022-08-06T12:19:03;96867.81;;;23.24;42.95
706;BME280;21234;48.690;9.016;2022-08-06T12:21:31;96867.69;;;23.07;44.38
706;BME280;21234;48.690;9.016;2022-08-06T12:23:58;96874.88;;;22.86;42.88
706;BME280;21234;48.690;9.016;2022-08-06T12:26:30;96868.81;;;22.48;42.44
706;BME280;21234;48.690;9.016;2022-08-06T12:29:04;96868.38;;;22.54;42.39
706;BME280;21234;48.690;9.016;2022-08-06T12:31:36;96856.28;;;23.08;43.48
706;BME280;21234;48.690;9.016;2022-08-06T12:34:04;96858.22;;;23.08;42.12
706;BME280;21234;48.690;9.016;2022-08-06T12:36:33;96855.34;;;22.77;43.01
706;BME280;21234;48.690;9.016;2022-08-06T12:39:02;96862.44;;;22.47;43.44
706;BME280;21234;48.690;9.016;2022-08-06T12:41:40;96855.94;;;22.29;42.43
706;BME280;21234;48.690;9.016;2022-08-06T12:44:09;96850.19;;;22.98;42.50
706;BME280;21234;48.690;9.016;2022-08-06T12:46:37;96849.78;;;23.13;42.90
706;BME280;21234;48.690;9.016;2022-08-06T12:49:06;96843.31;;;22.95;43.26
706;BME280;21234;48.690;9.016;2022-08-06T12:51:34;96848.84;;;22.73;43.36
706;BME280;21234;48.690;9.016;2022-08-06T12:54:03;96838.22;;;22.89;43.19
706;BME280;21234;48.690;9.016;2022-08-06T12:56:32;96834.72;;;23.59;43.77
706;BME280;21234;48.690;9.016;2022-08-06T12:59:02;96840.53;;;24.36;42.02
706;BME280;21234;48.690;9.016;2022-08-06T13:01:30;96828.09;;;24.25;40.85
706;BME280;21234;48.690;9.016;2022-08-06T13:04:00;96830.25;;;23.89;41.52
706;BME280;21234;48.690;9.016;2022-08-06T13:06:28;96838.56;;;23.49;42.32
706;BME280;21234;48.690;9.016;2022-08-06T13:08:56;96829.72;;;23.47;40.76
706;BME280;21234;48.690;9.016;2022-08-06T13:11:30;96831.75;;;23.95;41.89
706;BME280;21234;48.690;9.016;2022-08-06T13:13:57;96833.03;;;23.89;39.39
706;BME280;21234;48.690;9.016;2022-08-06T13:16:37;96829.50;;;23.57;39.86
706;BME280;21234;48.690;9.016;2022-08-06T13:19:07;96822.94;;;23.53;42.13
706;BME280;21234;48.690;9.016;2022-08-06T13:21:34;96816.09;;;23.99;42.44
706;BME280;21234;48.690;9.016;2022-08-06T13:24:03;96814.69;;;24.62;41.26
706;BME280;21234;48.690;9.016;2022-08-06T13:26:34;96803.56;;;24.79;40.20
706;BME280;21234;48.690;9.016;2022-08-06T13:29:15;96809.63;;;24.98;39.02
706;BME280;21234;48.690;9.016;2022-08-06T13:31:43;96815.53;;;24.62;39.29
706;BME280;21234;48.690;9.016;2022-08-06T13:34:13;96814.84;;;24.31;40.12
706;BME280;21234;48.690;9.016;2022-08-06T13:36:42;96812.09;;;23.83;41.29
706;BME280;21234;48.690;9.016;2022-08-06T13:39:20;96814.72;;;23.48;40.66
706;BME280;21234;48.690;9.016;2022-08-06T13:41:47;96805.41;;;23.84;41.97
706;BME280;21234;48.690;9.016;2022-08-06T13:44:33;96800.84;;;23.88;40.56
706;BME280;21234;48.690;9.016;2022-08-06T13:47:00;96808.56;;;24.08;38.42
706;BME280;21234;48.690;9.016;2022-08-06T13:49:31;96805.22;;;24.28;41.42